In Rescue
 
Open Full Screen Window  High Contrast Mode
Wind Gusting 00 knots
09
April 02, 2020 11:56 PM CDT
Present Weather: Unknown Precipitation
Weather Information
Wind Direction
  310 °
Wind Speed
  09 kt (10 mph)
Wind Gust
  00 kt (0 mph)
Altimeter
30.05 in
Visibility
2 SM
Temperature
-04° C
25° F
Dewpoint
-05° C
23° F
Humidity
93%
1hr Rain Fall
00.00 in.
24hr Rain Fall
00.30 in.
Sky Condition
Overcast @ 1,200 ft
Broken @ 600 ft
IFR

METAR KDVP 030456Z AUTO 31009KT 2SM UP BKN006 OVC012 M04/M05 A3005 RMK AO2 T10431051

FAA Disclaimer: The data displayed is for advisory purposes only and is not to be used for flight planning or operations.